createdAt,value
2022-12-18T00:01:32.757Z,99465.06
2022-12-18T00:04:03.699Z,99472.72
2022-12-18T00:06:31.860Z,99474.44
2022-12-18T00:09:00.900Z,99476.16
2022-12-18T00:11:31.678Z,99483.03
2022-12-18T00:14:02.029Z,99489.00
2022-12-18T00:16:36.456Z,99493.28
2022-12-18T00:19:05.994Z,99494.16
2022-12-18T00:21:34.664Z,99494.94
2022-12-18T00:24:02.887Z,99484.72
2022-12-18T00:26:33.523Z,99492.38
2022-12-18T00:29:14.876Z,99495.84
2022-12-18T00:31:44.041Z,99499.25
2022-12-18T00:34:14.127Z,99500.94
2022-12-18T00:36:42.463Z,99498.38
2022-12-18T00:39:11.813Z,99507.78
2022-12-18T00:41:57.601Z,99503.53
2022-12-18T00:44:25.135Z,99509.50
2022-12-18T00:46:52.357Z,99518.91
2022-12-18T00:49:21.190Z,99522.31
2022-12-18T00:51:49.055Z,99518.94
2022-12-18T00:54:17.122Z,99532.59
2022-12-18T00:56:51.447Z,99529.16
2022-12-18T00:59:19.679Z,99530.00
2022-12-18T01:01:48.221Z,99537.66
2022-12-18T01:04:16.248Z,99545.34
2022-12-18T01:06:43.500Z,99541.91
2022-12-18T01:09:13.799Z,99546.97
2022-12-18T01:11:41.493Z,99546.13
2022-12-18T01:14:09.677Z,99554.66
2022-12-18T01:16:36.894Z,99547.00
2022-12-18T01:19:04.429Z,99545.31
2022-12-18T01:21:31.866Z,99544.44
2022-12-18T01:23:59.913Z,99545.25
2022-12-18T01:26:30.616Z,99546.13
2022-12-18T01:28:59.441Z,99550.25
2022-12-18T01:31:33.073Z,99552.91
2022-12-18T01:34:06.151Z,99552.91
2022-12-18T01:36:37.865Z,99548.63
2022-12-18T01:39:14.043Z,99552.94
2022-12-18T01:42:00.945Z,99562.31
2022-12-18T01:45:03.433Z,99555.47
2022-12-18T01:47:37.821Z,99561.44
2022-12-18T01:50:24.632Z,99564.75
2022-12-18T01:53:01.292Z,99568.25
2022-12-18T01:55:36.106Z,99567.34
2022-12-18T01:58:04.628Z,99562.28
2022-12-18T02:00:32.760Z,99572.44
2022-12-18T02:03:00.117Z,99577.44
2022-12-18T02:06:05.754Z,99580.00
2022-12-18T02:08:52.016Z,99591.16
2022-12-18T02:11:58.295Z,99591.09
2022-12-18T02:15:04.562Z,99597.09
2022-12-18T02:17:38.852Z,99590.28
2022-12-18T02:20:19.124Z,99594.47
2022-12-18T02:22:55.066Z,99604.81
2022-12-18T02:25:48.914Z,99611.59
2022-12-18T02:28:21.866Z,99616.78
2022-12-18T02:30:53.507Z,99611.59
2022-12-18T02:33:25.221Z,99608.13
2022-12-18T02:35:55.460Z,99614.09
2022-12-18T02:38:26.114Z,99614.22
2022-12-18T02:40:55.114Z,99608.25
2022-12-18T02:43:22.621Z,99618.53
2022-12-18T02:45:55.899Z,99625.41
2022-12-18T02:48:33.446Z,99635.72
2022-12-18T02:51:30.175Z,99630.59
2022-12-18T02:54:23.950Z,99640.78
2022-12-18T02:56:56.938Z,99651.03
2022-12-18T02:59:42.173Z,99659.53
2022-12-18T03:02:24.677Z,99657.78
2022-12-18T03:05:18.771Z,99654.44
2022-12-18T03:07:58.309Z,99649.38
2022-12-18T03:10:32.151Z,99657.84
2022-12-18T03:13:16.698Z,99661.97
2022-12-18T03:15:50.629Z,99668.88
2022-12-18T03:18:28.651Z,99667.09
2022-12-18T03:21:03.929Z,99666.31
2022-12-18T03:23:40.731Z,99664.66
2022-12-18T03:26:18.561Z,99668.88
2022-12-18T03:28:56.853Z,99669.00
2022-12-18T03:31:27.493Z,99662.97
2022-12-18T03:34:00.480Z,99667.19
2022-12-18T03:36:28.910Z,99668.09
2022-12-18T03:38:56.204Z,99669.78
2022-12-18T03:41:50.549Z,99678.31
2022-12-18T03:44:51.089Z,99672.34
2022-12-18T03:47:36.262Z,99668.09
2022-12-18T03:50:48.235Z,99683.44
2022-12-18T03:53:59.073Z,99676.53
2022-12-18T03:56:34.182Z,99688.50
2022-12-18T03:59:05.670Z,99696.09
2022-12-18T04:01:40.242Z,99689.28
2022-12-18T04:04:10.992Z,99692.78
2022-12-18T04:06:40.924Z,99697.88
2022-12-18T04:09:09.233Z,99703.06
2022-12-18T04:11:36.529Z,99699.59
2022-12-18T04:14:07.190Z,99700.44
2022-12-18T04:16:34.709Z,99702.22
2022-12-18T04:19:02.339Z,99707.34
2022-12-18T04:21:29.581Z,99704.78
2022-12-18T04:23:57.094Z,99706.47
2022-12-18T04:26:24.447Z,99714.16
2022-12-18T04:28:51.959Z,99715.88
2022-12-18T04:31:19.254Z,99718.50
2022-12-18T04:33:46.773Z,99731.16
2022-12-18T04:36:14.144Z,99740.56
2022-12-18T04:38:41.889Z,99734.59
2022-12-18T04:41:09.298Z,99736.28
2022-12-18T04:43:36.997Z,99732.84
2022-12-18T04:46:09.485Z,99743.13
2022-12-18T04:48:38.311Z,99744.81
2022-12-18T04:51:07.090Z,99749.94
2022-12-18T04:53:34.883Z,99754.25
2022-12-18T04:56:11.768Z,99755.97
2022-12-18T04:58:41.459Z,99755.13
2022-12-18T05:01:10.358Z,99763.66
2022-12-18T05:03:39.766Z,99766.13
2022-12-18T05:06:08.582Z,99775.56
2022-12-18T05:08:36.528Z,99776.47
2022-12-18T05:11:11.288Z,99780.78
2022-12-18T05:13:39.910Z,99774.75
2022-12-18T05:16:08.679Z,99774.81
2022-12-18T05:18:36.870Z,99775.66
2022-12-18T05:21:04.630Z,99781.59
2022-12-18T05:23:32.662Z,99777.38
2022-12-18T05:26:03.359Z,99785.94
2022-12-18T05:28:33.078Z,99783.34
2022-12-18T05:31:03.485Z,99785.97
2022-12-18T05:33:35.543Z,99789.25
2022-12-18T05:36:06.707Z,99802.88
2022-12-18T05:38:37.665Z,99788.50
2022-12-18T05:41:06.593Z,99791.91
2022-12-18T05:43:37.542Z,99791.88
2022-12-18T05:46:14.028Z,99797.00
2022-12-18T05:48:42.896Z,99807.31
2022-12-18T05:51:15.547Z,99811.59
2022-12-18T05:53:44.395Z,99807.22
2022-12-18T05:56:21.402Z,99804.59
2022-12-18T05:58:54.203Z,99804.59
2022-12-18T06:01:26.464Z,99805.47
2022-12-18T06:03:54.964Z,99815.53
2022-12-18T06:06:28.713Z,99812.19
2022-12-18T06:08:57.686Z,99811.44
2022-12-18T06:11:28.181Z,99821.66
2022-12-18T06:13:59.327Z,99819.03
2022-12-18T06:16:28.840Z,99817.31
2022-12-18T06:19:02.738Z,99814.84
2022-12-18T06:21:31.679Z,99826.00
2022-12-18T06:24:00.983Z,99825.16
2022-12-18T06:26:28.755Z,99830.31
2022-12-18T06:28:56.560Z,99842.25
2022-12-18T06:31:23.898Z,99832.84
2022-12-18T06:33:51.581Z,99847.28
2022-12-18T06:36:18.908Z,99845.56
2022-12-18T06:38:46.456Z,99846.50
2022-12-18T06:41:20.921Z,99850.00
2022-12-18T06:43:48.714Z,99858.56
2022-12-18T06:46:16.533Z,99858.53
2022-12-18T06:48:47.372Z,99865.28
2022-12-18T06:51:21.939Z,99868.75
2022-12-18T06:53:49.941Z,99872.13
2022-12-18T06:56:17.623Z,99868.75
2022-12-18T06:58:45.373Z,99874.75
2022-12-18T07:01:14.865Z,99881.59
2022-12-18T07:03:44.586Z,99880.78
2022-12-18T07:06:21.184Z,99885.94
2022-12-18T07:08:50.669Z,99885.09
2022-12-18T07:11:19.147Z,99885.16
2022-12-18T07:13:47.877Z,99900.59
2022-12-18T07:16:25.159Z,99900.59
2022-12-18T07:18:55.829Z,99902.31
2022-12-18T07:21:25.311Z,99914.34
2022-12-18T07:23:53.335Z,99901.63
2022-12-18T07:26:22.953Z,99905.91
2022-12-18T07:28:51.334Z,99918.75
2022-12-18T07:31:22.812Z,99912.06
2022-12-18T07:33:51.889Z,99918.91
2022-12-18T07:36:20.446Z,99918.13
2022-12-18T07:38:53.541Z,99924.22
2022-12-18T07:41:22.292Z,99927.75
2022-12-18T07:43:49.831Z,99924.34
2022-12-18T07:46:18.769Z,99928.75
2022-12-18T07:48:49.349Z,99921.94
2022-12-18T07:51:19.583Z,99920.25
2022-12-18T07:53:49.763Z,99913.44
2022-12-18T07:56:30.373Z,99924.63
2022-12-18T07:59:00.216Z,99922.03
2022-12-18T08:01:28.666Z,99922.13
2022-12-18T08:03:56.149Z,99921.28
2022-12-18T08:06:24.824Z,99916.97
2022-12-18T08:08:54.618Z,99924.66
2022-12-18T08:11:24.341Z,99922.03
2022-12-18T08:13:52.194Z,99930.59
2022-12-18T08:16:21.626Z,99925.38
2022-12-18T08:18:49.747Z,99944.28
2022-12-18T08:21:26.373Z,99937.41
2022-12-18T08:23:56.755Z,99939.16
2022-12-18T08:26:26.894Z,99941.72
2022-12-18T08:28:57.193Z,99945.88
2022-12-18T08:31:26.132Z,99950.91
2022-12-18T08:33:55.421Z,99949.03
2022-12-18T08:36:24.355Z,99951.38
2022-12-18T08:38:52.881Z,99948.44
2022-12-18T08:41:20.821Z,99956.66
2022-12-18T08:44:06.743Z,99961.44
2022-12-18T08:46:43.382Z,99958.31
2022-12-18T08:49:12.723Z,99959.72
2022-12-18T08:51:40.796Z,99958.00
2022-12-18T08:54:08.368Z,99964.09
2022-12-18T08:56:36.259Z,99976.88
2022-12-18T08:59:05.387Z,99975.41
2022-12-18T09:01:33.284Z,99968.13
2022-12-18T09:04:01.564Z,99967.91
2022-12-18T09:06:29.069Z,99973.53
2022-12-18T09:08:56.313Z,99982.19
2022-12-18T09:11:27.416Z,99984.25
2022-12-18T09:13:57.019Z,99982.84
2022-12-18T09:16:31.644Z,99981.78
2022-12-18T09:19:00.956Z,99994.25
2022-12-18T09:21:37.021Z,99987.19
2022-12-18T09:24:08.506Z,99979.88
2022-12-18T09:26:36.996Z,99971.69
2022-12-18T09:29:05.048Z,99972.97
2022-12-18T09:31:32.642Z,99975.22
2022-12-18T09:33:59.970Z,99964.88
2022-12-18T09:36:27.653Z,99976.94
2022-12-18T09:38:54.903Z,99983.47
2022-12-18T09:41:45.432Z,99982.97
2022-12-18T09:44:24.359Z,99978.09
2022-12-18T09:47:07.581Z,99986.97
2022-12-18T09:49:43.089Z,99983.25
2022-12-18T09:52:28.923Z,99983.78
2022-12-18T09:55:29.890Z,99987.28
2022-12-18T09:58:25.712Z,99984.94
2022-12-18T10:00:54.632Z,99996.84
2022-12-18T10:03:22.955Z,100000.38
2022-12-18T10:06:41.199Z,99988.50
2022-12-18T10:09:50.169Z,99992.34
2022-12-18T10:12:45.847Z,99986.56
2022-12-18T10:15:31.525Z,99988.22
2022-12-18T10:18:22.181Z,99984.59
2022-12-18T10:21:00.049Z,99984.78
2022-12-18T10:24:00.151Z,99983.69
2022-12-18T10:26:27.717Z,99981.94
2022-12-18T10:28:56.947Z,99979.72
2022-12-18T10:31:26.277Z,99976.09
2022-12-18T10:33:56.221Z,99971.28
2022-12-18T10:36:25.811Z,99961.19
2022-12-18T10:38:53.197Z,99964.25
2022-12-18T10:41:23.130Z,99961.19
2022-12-18T10:44:13.207Z,99958.56
2022-12-18T10:46:41.765Z,99950.53
2022-12-18T10:49:25.027Z,99954.50
2022-12-18T10:52:08.412Z,99953.78
2022-12-18T10:54:37.374Z,99946.75
2022-12-18T10:57:41.577Z,99952.84
2022-12-18T11:00:31.476Z,99945.84
2022-12-18T11:02:59.372Z,99940.34
2022-12-18T11:05:35.405Z,99943.03
2022-12-18T11:08:04.174Z,99941.00
2022-12-18T11:10:41.103Z,99929.31
2022-12-18T11:13:23.123Z,99924.31
2022-12-18T11:15:51.876Z,99922.59
2022-12-18T11:18:28.570Z,99925.06
2022-12-18T11:21:07.311Z,99917.41
2022-12-18T11:23:37.591Z,99921.66
2022-12-18T11:26:07.236Z,99926.88
2022-12-18T11:29:10.423Z,99933.03
2022-12-18T11:31:37.758Z,99938.22
2022-12-18T11:34:32.445Z,99939.41
2022-12-18T11:37:04.152Z,99937.28
2022-12-18T11:39:50.859Z,99929.75
2022-12-18T11:42:44.074Z,99931.78
2022-12-18T11:45:14.727Z,99932.84
2022-12-18T11:48:06.911Z,99935.88
2022-12-18T11:50:59.665Z,99931.47
2022-12-18T11:53:28.840Z,99940.84
2022-12-18T11:56:31.012Z,99941.75
2022-12-18T11:59:04.582Z,99950.97
2022-12-18T12:01:56.299Z,99950.66
2022-12-18T12:05:07.644Z,99954.88
2022-12-18T12:08:11.079Z,99956.94
2022-12-18T12:10:48.827Z,99960.63
2022-12-18T12:13:57.293Z,99953.81
2022-12-18T12:16:34.761Z,99955.28
2022-12-18T12:19:28.388Z,99955.81
2022-12-18T12:22:21.701Z,99962.81
2022-12-18T12:25:47.194Z,99966.88
2022-12-18T12:28:31.291Z,99953.88
2022-12-18T12:31:38.321Z,99961.47
2022-12-18T12:34:27.621Z,99967.66
2022-12-18T12:37:38.053Z,99968.09
2022-12-18T12:40:26.808Z,99967.94
2022-12-18T12:43:24.389Z,99966.56
2022-12-18T12:46:02.358Z,99969.53
2022-12-18T12:48:45.567Z,99970.25
2022-12-18T12:51:36.623Z,99970.41
2022-12-18T12:54:14.161Z,99977.34
2022-12-18T12:56:50.800Z,99987.91
2022-12-18T12:59:41.403Z,99985.22
2022-12-18T13:02:57.610Z,99984.31
2022-12-18T13:05:35.691Z,99985.00
2022-12-18T13:08:28.573Z,99977.84
2022-12-18T13:11:19.766Z,99979.97
2022-12-18T13:13:57.166Z,99977.56
2022-12-18T13:16:30.645Z,99983.06
2022-12-18T13:18:59.853Z,99985.94
2022-12-18T13:21:32.080Z,99995.53
2022-12-18T13:24:28.285Z,99986.53
2022-12-18T13:26:55.878Z,100003.03
2022-12-18T13:29:46.961Z,100009.13
2022-12-18T13:32:25.403Z,100000.94
2022-12-18T13:35:18.173Z,99998.44
2022-12-18T13:37:54.413Z,99994.81
2022-12-18T13:40:39.868Z,100000.72
2022-12-18T13:43:35.628Z,99997.38
2022-12-18T13:46:23.857Z,99997.63
2022-12-18T13:48:59.432Z,100009.03
2022-12-18T13:51:28.192Z,100005.78
2022-12-18T13:54:00.706Z,100006.34
2022-12-18T13:56:34.525Z,100004.84
2022-12-18T13:59:15.906Z,100004.38
2022-12-18T14:02:06.643Z,100008.03
2022-12-18T14:04:37.007Z,100005.22
2022-12-18T14:07:23.569Z,100001.72
2022-12-18T14:10:18.887Z,100001.66
2022-12-18T14:13:00.677Z,100002.00
2022-12-18T14:15:45.459Z,100013.72
2022-12-18T14:18:43.398Z,100012.78
2022-12-18T14:21:31.173Z,100010.91
2022-12-18T14:24:24.684Z,100013.94
2022-12-18T14:26:52.791Z,100009.72
2022-12-18T14:29:32.068Z,100007.03
2022-12-18T14:32:17.691Z,100015.72
2022-12-18T14:34:51.832Z,100008.72
2022-12-18T14:37:26.636Z,100022.72
2022-12-18T14:39:59.159Z,100018.09
2022-12-18T14:42:29.407Z,100031.69
2022-12-18T14:45:43.231Z,100023.41
2022-12-18T14:48:48.581Z,100018.56
2022-12-18T14:51:25.870Z,100032.44
2022-12-18T14:54:01.491Z,100033.41
2022-12-18T14:56:33.402Z,100042.91
2022-12-18T14:59:25.680Z,100038.69
2022-12-18T15:02:01.950Z,100046.47
2022-12-18T15:04:44.492Z,100044.75
2022-12-18T15:07:23.825Z,100045.63
2022-12-18T15:10:19.048Z,100055.09
2022-12-18T15:12:56.131Z,100053.34
2022-12-18T15:15:38.716Z,100048.22
2022-12-18T15:18:09.687Z,100047.34
2022-12-18T15:21:01.205Z,100055.03
2022-12-18T15:24:00.777Z,100062.66
2022-12-18T15:26:39.426Z,100056.63
2022-12-18T15:29:10.140Z,100060.88
2022-12-18T15:31:40.377Z,100065.91
2022-12-18T15:34:21.657Z,100072.75
2022-12-18T15:36:52.161Z,100073.53
2022-12-18T15:39:19.518Z,100080.34
2022-12-18T15:42:06.638Z,100069.16
2022-12-18T15:44:35.222Z,100081.03
2022-12-18T15:47:03.151Z,100080.19
2022-12-18T15:49:30.502Z,100080.91
2022-12-18T15:52:03.067Z,100073.13
2022-12-18T15:54:48.870Z,100071.41
2022-12-18T15:57:24.938Z,100071.34
2022-12-18T15:59:55.215Z,100081.50
2022-12-18T16:02:24.024Z,100087.38
2022-12-18T16:04:53.819Z,100085.63
2022-12-18T16:07:25.582Z,100094.06
2022-12-18T16:09:54.031Z,100101.69
2022-12-18T16:12:26.172Z,100094.84
2022-12-18T16:14:53.559Z,100091.28
2022-12-18T16:17:21.288Z,100095.38
2022-12-18T16:19:48.775Z,100096.13
2022-12-18T16:22:29.047Z,100101.94
2022-12-18T16:24:58.193Z,100101.91
2022-12-18T16:27:26.811Z,100099.28
2022-12-18T16:29:54.080Z,100097.56
2022-12-18T16:32:23.721Z,100096.59
2022-12-18T16:34:52.364Z,100096.44
2022-12-18T16:37:20.146Z,100090.47
2022-12-18T16:39:47.397Z,100086.06
2022-12-18T16:42:20.518Z,100095.31
2022-12-18T16:44:50.112Z,100089.22
2022-12-18T16:47:18.619Z,100094.38
2022-12-18T16:49:46.817Z,100090.94
2022-12-18T16:52:15.157Z,100093.38
2022-12-18T16:54:42.538Z,100093.25
2022-12-18T16:57:15.180Z,100093.25
2022-12-18T16:59:43.181Z,100084.66
2022-12-18T17:02:15.898Z,100080.28
2022-12-18T17:04:45.402Z,100068.25
2022-12-18T17:07:14.397Z,100067.19
2022-12-18T17:09:42.592Z,100065.38
2022-12-18T17:12:10.469Z,100063.56
2022-12-18T17:14:38.047Z,100062.69
2022-12-18T17:17:22.767Z,100045.34
2022-12-18T17:19:52.563Z,100042.63
2022-12-18T17:22:23.461Z,100043.19
2022-12-18T17:24:51.374Z,100036.34
2022-12-18T17:27:19.056Z,100042.28
2022-12-18T17:29:48.308Z,100033.59
2022-12-18T17:32:18.369Z,100042.63
2022-12-18T17:34:46.544Z,100042.59
2022-12-18T17:37:14.470Z,100043.31
2022-12-18T17:39:42.315Z,100044.22
2022-12-18T17:42:10.911Z,100051.75
2022-12-18T17:44:42.775Z,100058.63
2022-12-18T17:47:12.357Z,100070.53
2022-12-18T17:49:39.865Z,100068.69
2022-12-18T17:52:07.593Z,100062.06
2022-12-18T17:54:37.901Z,100062.72
2022-12-18T17:57:05.964Z,100065.56
2022-12-18T17:59:33.393Z,100063.63
2022-12-18T18:02:01.017Z,100065.84
2022-12-18T18:04:28.486Z,100076.78
2022-12-18T18:06:55.972Z,100068.88
2022-12-18T18:09:23.350Z,100073.78
2022-12-18T18:12:10.152Z,100062.94
2022-12-18T18:14:37.515Z,100064.63
2022-12-18T18:17:05.397Z,100062.84
2022-12-18T18:19:34.343Z,100066.59
2022-12-18T18:22:02.973Z,100063.06
2022-12-18T18:24:30.977Z,100067.66
2022-12-18T18:27:01.664Z,100058.41
2022-12-18T18:29:33.333Z,100054.75
2022-12-18T18:32:01.099Z,100066.81
2022-12-18T18:34:32.195Z,100068.53
2022-12-18T18:37:02.235Z,100083.16
2022-12-18T18:39:30.330Z,100079.75
2022-12-18T18:41:57.928Z,100088.47
2022-12-18T18:44:25.939Z,100083.16
2022-12-18T18:46:58.747Z,100086.22
2022-12-18T18:49:28.427Z,100082.84
2022-12-18T18:51:59.224Z,100081.81
2022-12-18T18:54:26.977Z,100088.41
2022-12-18T18:59:42.495Z,100097.63
2022-12-18T19:02:14.260Z,100103.59
2022-12-18T19:04:46.073Z,100108.63
2022-12-18T19:07:22.543Z,100112.66
2022-12-18T19:10:04.073Z,100116.78
2022-12-18T19:12:52.987Z,100119.34
2022-12-18T19:15:20.591Z,100120.88
2022-12-18T19:17:48.407Z,100114.78
2022-12-18T19:20:16.552Z,100112.16
2022-12-18T19:22:47.942Z,100111.25
2022-12-18T19:25:38.576Z,100103.78
2022-12-18T19:28:16.427Z,100108.94
2022-12-18T19:30:49.086Z,100116.31
2022-12-18T19:33:45.483Z,100118.50
2022-12-18T19:36:20.284Z,100117.84
2022-12-18T19:38:50.213Z,100133.03
2022-12-18T19:41:19.132Z,100131.94
2022-12-18T19:43:47.232Z,100131.13
2022-12-18T19:46:20.200Z,100133.56
2022-12-18T19:48:48.701Z,100137.88
2022-12-18T19:51:24.039Z,100134.16
2022-12-18T19:53:58.183Z,100113.91
2022-12-18T19:56:30.812Z,100109.03
2022-12-18T19:58:58.506Z,100100.28
2022-12-18T20:01:28.576Z,100101.88
2022-12-18T20:03:57.013Z,100107.38
2022-12-18T20:06:31.532Z,100107.56
2022-12-18T20:09:04.743Z,100106.34
2022-12-18T20:11:41.260Z,100100.25
2022-12-18T20:14:12.154Z,100097.13
2022-12-18T20:16:39.754Z,100094.41
2022-12-18T20:19:10.197Z,100103.94
2022-12-18T20:21:38.108Z,100112.38
2022-12-18T20:24:08.386Z,100110.81
2022-12-18T20:26:35.976Z,100104.53
2022-12-18T20:29:03.663Z,100101.88
2022-12-18T20:31:31.092Z,100100.31
2022-12-18T20:34:01.490Z,100097.56
2022-12-18T20:36:30.793Z,100095.94
2022-12-18T20:39:01.567Z,100093.28
2022-12-18T20:41:38.258Z,100087.16
2022-12-18T20:44:21.541Z,100087.16
2022-12-18T20:46:57.650Z,100084.13
2022-12-18T20:49:27.325Z,100088.66
2022-12-18T20:51:57.094Z,100073.41
2022-12-18T20:54:27.477Z,100075.03
2022-12-18T20:56:55.945Z,100076.53
2022-12-18T20:59:25.695Z,100079.78
2022-12-18T21:01:53.312Z,100078.22
2022-12-18T21:04:22.582Z,100076.66
2022-12-18T21:06:59.238Z,100079.19
2022-12-18T21:09:38.152Z,100076.66
2022-12-18T21:12:32.927Z,100080.28
2022-12-18T21:15:10.342Z,100070.59
2022-12-18T21:17:44.193Z,100062.84
2022-12-18T21:20:17.600Z,100060.97
2022-12-18T21:22:46.843Z,100064.75
2022-12-18T21:25:14.682Z,100062.41
2022-12-18T21:27:41.885Z,100059.94
2022-12-18T21:30:09.991Z,100064.94
2022-12-18T21:32:37.238Z,100066.75
2022-12-18T21:35:05.367Z,100059.78
2022-12-18T21:37:32.672Z,100064.50
2022-12-18T21:40:00.221Z,100070.50
2022-12-18T21:42:45.978Z,100076.59
2022-12-18T21:45:13.516Z,100077.41
2022-12-18T21:47:40.699Z,100071.56
2022-12-18T21:50:08.911Z,100077.66
2022-12-18T21:52:36.175Z,100078.28
2022-12-18T21:55:09.514Z,100073.41
2022-12-18T21:57:39.512Z,100075.16
2022-12-18T22:00:19.120Z,100075.03
2022-12-18T22:03:01.203Z,100075.09
2022-12-18T22:05:36.522Z,100070.41
2022-12-18T22:08:04.001Z,100067.66
2022-12-18T22:10:31.600Z,100071.88
2022-12-18T22:12:59.177Z,100074.22
2022-12-18T22:15:26.685Z,100069.13
2022-12-18T22:17:58.721Z,100065.13
2022-12-18T22:20:29.700Z,100065.06
2022-12-18T22:22:57.517Z,100065.81
2022-12-18T22:25:25.323Z,100070.06
2022-12-18T22:28:11.332Z,100074.22
2022-12-18T22:30:39.171Z,100064.06
2022-12-18T22:33:06.492Z,100069.97
2022-12-18T22:35:33.993Z,100069.28
2022-12-18T22:38:01.753Z,100075.13
2022-12-18T22:40:30.095Z,100075.16
2022-12-18T22:42:59.308Z,100074.53
2022-12-18T22:45:27.252Z,100070.97
2022-12-18T22:47:54.594Z,100078.56
2022-12-18T22:50:22.209Z,100058.97
2022-12-18T22:52:49.629Z,100057.75
2022-12-18T22:55:17.381Z,100059.41
2022-12-18T22:57:49.078Z,100057.56
2022-12-18T23:00:24.263Z,100056.66
2022-12-18T23:02:59.838Z,100054.09
2022-12-18T23:05:30.712Z,100053.38
2022-12-18T23:07:58.449Z,100051.78
2022-12-18T23:10:27.405Z,100052.53
2022-12-18T23:12:54.797Z,100059.41
2022-12-18T23:15:27.748Z,100056.91
2022-12-18T23:17:58.899Z,100052.53
2022-12-18T23:20:27.867Z,100054.94
2022-12-18T23:22:55.128Z,100057.53
2022-12-18T23:25:24.603Z,100050.56
2022-12-18T23:27:51.881Z,100051.66
2022-12-18T23:30:20.298Z,100059.47
2022-12-18T23:32:48.875Z,100059.59
2022-12-18T23:35:17.842Z,100048.91
2022-12-18T23:37:59.304Z,100052.38
2022-12-18T23:40:33.406Z,100052.81
2022-12-18T23:43:00.626Z,100052.16
2022-12-18T23:45:28.339Z,100056.50
2022-12-18T23:47:55.678Z,100049.84
2022-12-18T23:50:26.759Z,100042.34
2022-12-18T23:53:03.296Z,100040.38
2022-12-18T23:55:39.490Z,100042.78
2022-12-18T23:58:09.182Z,100033.53
